Time;durP1;ratioP1;P1;durP2;ratioP2;P2;SDS_P1;SDS_P2;PMS_P1;PMS_P2;Temp;Humidity;BMP_temperature;BMP_pressure;BME280_temperature;BME280_humidity;BME280_pressure;Samples;Min_cycle;Max_cycle;Signal;HPM_P1;HPM_P2
2023/10/02 00:02:07;;;;;;;7.97;7.13;;;;;;;16.86;60.88;95510.97;5119391;28;20184;-66
2023/10/02 00:04:35;;;;;;;7.88;7.25;;;;;;;16.88;60.91;95510.56;5119303;28;20214;-66
2023/10/02 00:07:16;;;;;;;7.57;6.88;;;;;;;16.90;60.57;95514.59;5101428;28;20200;-66
2023/10/02 00:09:49;;;;;;;7.38;6.70;;;;;;;16.90;60.57;95506.22;5102157;28;20199;-66
2023/10/02 00:12:26;;;;;;;7.28;6.68;;;;;;;16.89;60.15;95507.44;5102161;28;20187;-66
2023/10/02 00:14:55;;;;;;;7.53;6.32;;;;;;;16.90;60.14;95513.78;5102142;28;20187;-66
2023/10/02 00:17:24;;;;;;;7.40;6.70;;;;;;;16.92;59.78;95519.78;5119025;28;20204;-66
2023/10/02 00:19:57;;;;;;;7.40;6.75;;;;;;;16.93;60.38;95508.25;5100953;28;20195;-66
2023/10/02 00:22:41;;;;;;;7.72;6.93;;;;;;;16.93;59.82;95515.81;5101110;28;20657;-66
2023/10/02 00:25:16;;;;;;;6.93;6.20;;;;;;;16.92;59.80;95512.25;5100747;28;20191;-66
2023/10/02 00:27:48;;;;;;;6.88;6.28;;;;;;;16.92;59.48;95514.19;5101340;28;20191;-66
2023/10/02 00:30:20;;;;;;;6.90;6.20;;;;;;;16.90;59.40;95509.03;5118611;28;20184;-66
2023/10/02 00:32:53;;;;;;;9.48;6.22;;;;;;;16.88;59.08;95511.38;5118774;28;20180;-66
2023/10/02 00:35:22;;;;;;;7.22;6.18;;;;;;;16.89;59.00;95501.06;5118415;28;20195;-66
2023/10/02 00:37:51;;;;;;;6.68;6.07;;;;;;;16.90;59.06;95499.88;5100639;28;20207;-66
2023/10/02 00:40:21;;;;;;;6.07;5.47;;;;;;;16.89;58.70;95503.84;5118478;28;20529;-66
2023/10/02 00:42:49;;;;;;;6.35;5.75;;;;;;;16.87;58.63;95503.41;5118605;28;20187;-66
2023/10/02 00:45:21;;;;;;;6.28;5.55;;;;;;;16.88;58.79;95507.78;5100535;28;20196;-66
2023/10/02 00:47:50;;;;;;;6.10;5.47;;;;;;;16.88;58.36;95496.66;5118572;28;20191;-66
2023/10/02 00:50:24;;;;;;;6.63;5.57;;;;;;;16.86;58.48;95497.03;5100530;28;20203;-66
2023/10/02 00:53:03;;;;;;;6.65;5.28;;;;;;;16.88;58.92;95503.00;5100590;28;20195;-66
2023/10/02 00:55:38;;;;;;;7.28;5.90;;;;;;;16.88;58.74;95505.81;5100204;28;20312;-66
2023/10/02 00:58:08;;;;;;;5.78;5.28;;;;;;;16.89;58.30;95501.84;5117981;28;20524;-66
2023/10/02 01:00:42;;;;;;;6.53;5.93;;;;;;;16.89;58.14;95506.63;5099937;28;20730;-66
2023/10/02 01:03:16;;;;;;;6.18;5.63;;;;;;;16.88;58.42;95505.81;5098644;28;20202;-66
2023/10/02 01:05:58;;;;;;;5.70;5.10;;;;;;;16.84;58.22;95500.19;5118160;28;20184;-66
2023/10/02 01:08:42;;;;;;;6.28;5.68;;;;;;;16.86;58.44;95502.63;5118170;28;20176;-66
2023/10/02 01:11:15;;;;;;;5.70;5.20;;;;;;;16.83;57.96;95509.75;5085902;28;20200;-66
2023/10/02 01:13:42;;;;;;;5.88;5.38;;;;;;;16.81;58.09;95505.72;5118309;28;20239;-65
2023/10/02 01:16:17;;;;;;;6.47;5.63;;;;;;;16.78;58.33;95501.75;5117964;28;20213;-65
2023/10/02 01:18:48;;;;;;;5.90;5.30;;;;;;;16.76;57.69;95504.09;5099709;28;20633;-65
2023/10/02 01:21:24;;;;;;;6.05;5.43;;;;;;;16.76;57.84;95500.53;5117676;28;20187;-65
2023/10/02 01:24:17;;;;;;;8.05;5.65;;;;;;;16.73;57.77;95507.63;5118142;28;20253;-65
2023/10/02 01:26:50;;;;;;;6.22;5.60;;;;;;;16.69;57.66;95506.78;5099479;28;20184;-65
2023/10/02 01:29:22;;;;;;;6.15;5.35;;;;;;;16.68;57.89;95507.97;5099476;28;20294;-65
2023/10/02 01:31:53;;;;;;;7.03;5.80;;;;;;;16.67;58.34;95503.59;5099456;28;20217;-65
2023/10/02 01:34:35;;;;;;;5.93;5.43;;;;;;;16.64;57.84;95498.78;5100038;28;20211;-65
2023/10/02 01:37:32;;;;;;;7.55;5.45;;;;;;;16.63;58.19;95505.53;5099843;28;20268;-67
2023/10/02 01:40:28;;;;;;;6.68;5.55;;;;;;;16.59;57.91;95511.06;5117563;28;20308;-65
2023/10/02 01:42:53;;;;;;;5.30;4.88;;;;;;;16.59;58.02;95511.06;5117695;28;20207;-65
2023/10/02 01:45:21;;;;;;;5.88;5.10;;;;;;;16.57;57.96;95507.84;5117522;28;20178;-65
2023/10/02 01:47:49;;;;;;;5.88;5.38;;;;;;;16.57;57.89;95505.06;5117175;28;20188;-66
2023/10/02 01:50:17;;;;;;;5.88;4.88;;;;;;;16.55;57.41;95512.19;5099596;28;20207;-66
2023/10/02 01:52:47;;;;;;;6.60;5.93;;;;;;;16.54;57.23;95514.19;5100224;28;20196;-65
2023/10/02 01:55:29;;;;;;;7.20;5.50;;;;;;;16.57;57.69;95520.97;5117460;28;20188;-65
2023/10/02 01:58:16;;;;;;;6.10;5.50;;;;;;;16.58;57.60;95523.38;5117050;28;20242;-66
2023/10/02 02:00:45;;;;;;;6.20;5.60;;;;;;;16.58;57.56;95526.16;5097118;28;20215;-66
2023/10/02 02:03:21;;;;;;;6.70;5.32;;;;;;;16.57;57.21;95515.41;5096630;28;20207;-66
2023/10/02 02:06:10;;;;;;;5.53;4.80;;;;;;;16.56;57.26;95516.59;5079481;28;20188;-66
2023/10/02 02:08:43;;;;;;;6.75;5.22;;;;;;;16.54;56.93;95510.59;5096304;28;20177;-65
2023/10/02 02:11:24;;;;;;;6.55;5.82;;;;;;;16.48;57.09;95512.91;5078625;28;20200;-65
2023/10/02 02:13:55;;;;;;;6.55;5.45;;;;;;;16.46;57.30;95520.84;5095936;28;20283;-65
2023/10/02 02:16:33;;;;;;;6.68;5.22;;;;;;;16.46;57.13;95523.63;5079119;28;20217;-65
2023/10/02 02:19:08;;;;;;;7.50;5.00;;;;;;;16.40;56.64;95519.59;5097207;28;20326;-65
2023/10/02 02:21:38;;;;;;;5.18;4.68;;;;;;;16.36;56.72;95525.09;5079350;28;20227;-65
2023/10/02 02:24:11;;;;;;;6.10;5.07;;;;;;;16.30;56.00;95528.59;5079193;28;20215;-65
2023/10/02 02:26:42;;;;;;;6.45;4.55;;;;;;;16.25;56.51;95524.19;5078796;28;20199;-65
2023/10/02 02:29:23;;;;;;;5.95;4.90;;;;;;;16.21;56.54;95519.75;5078718;28;20206;-65
2023/10/02 02:31:53;;;;;;;5.03;4.53;;;;;;;16.18;56.09;95526.06;5093333;28;20208;-65
2023/10/02 02:34:23;;;;;;;6.00;4.88;;;;;;;16.16;55.94;95528.41;5096046;28;20181;-65
2023/10/02 02:36:53;;;;;;;5.30;4.55;;;;;;;16.12;55.95;95528.38;5078060;28;20566;-65
2023/10/02 02:39:23;;;;;;;5.93;4.55;;;;;;;16.10;55.83;95536.31;5096008;28;20188;-65
2023/10/02 02:42:08;;;;;;;5.57;4.72;;;;;;;16.10;55.67;95534.31;5096017;28;20169;-65
2023/10/02 02:44:40;;;;;;;6.88;5.30;;;;;;;16.07;55.87;95532.28;5078430;28;20249;-65
2023/10/02 02:47:08;;;;;;;5.35;4.82;;;;;;;16.05;55.66;95536.63;5078801;28;20223;-65
2023/10/02 02:49:58;;;;;;;5.68;5.05;;;;;;;16.01;56.18;95535.78;5078630;28;20295;-65
2023/10/02 02:52:27;;;;;;;6.50;5.30;;;;;;;15.96;56.16;95539.69;5095824;28;20196;-65
2023/10/02 02:54:59;;;;;;;6.93;5.35;;;;;;;15.97;56.75;95532.16;5095735;28;20271;-65
2023/10/02 02:57:27;;;;;;;5.90;5.30;;;;;;;15.96;56.76;95533.34;5095759;28;20204;-65
2023/10/02 03:00:24;;;;;;;5.72;5.20;;;;;;;15.93;55.85;95528.50;5109174;28;20253;-65
2023/10/02 03:02:46;;;;;;;5.47;4.50;;;;;;;15.90;56.03;95532.84;5115800;28;20195;-66
2023/10/02 03:05:20;;;;;;;5.32;4.82;;;;;;;15.88;55.88;95533.22;5116054;28;20204;-64
2023/10/02 03:07:49;;;;;;;5.65;4.85;;;;;;;15.87;55.13;95517.72;5098142;28;20223;-64
2023/10/02 03:10:18;;;;;;;5.78;5.18;;;;;;;15.85;55.37;95528.41;5098565;28;20518;-64
2023/10/02 03:12:48;;;;;;;5.00;4.50;;;;;;;15.80;54.67;95525.97;5115963;28;20176;-64
2023/10/02 03:15:20;;;;;;;7.07;4.63;;;;;;;15.78;54.79;95528.31;5115563;28;20592;-64
2023/10/02 03:17:48;;;;;;;5.00;4.50;;;;;;;15.75;54.61;95531.84;5097621;28;20220;-64
2023/10/02 03:20:29;;;;;;;7.00;4.90;;;;;;;15.74;54.59;95533.03;5115891;28;20226;-66
2023/10/02 03:23:11;;;;;;;4.45;4.05;;;;;;;15.72;54.36;95529.81;5098700;28;20639;-65
2023/10/02 03:25:43;;;;;;;5.75;4.38;;;;;;;15.70;53.99;95529.38;5097302;28;20209;-64
2023/10/02 03:28:27;;;;;;;4.88;4.38;;;;;;;15.66;53.54;95520.19;5115718;28;20180;-64
2023/10/02 03:31:17;;;;;;;5.22;4.22;;;;;;;15.65;53.34;95521.34;5114613;28;20253;-64
2023/10/02 03:33:48;;;;;;;5.20;4.43;;;;;;;15.62;53.63;95525.69;5115565;28;20199;-64
2023/10/02 03:36:20;;;;;;;5.97;4.35;;;;;;;15.61;53.54;95528.81;5098025;28;20198;-64
2023/10/02 03:38:48;;;;;;;7.88;4.15;;;;;;;15.59;52.97;95529.19;5097712;28;20196;-65
2023/10/02 03:41:16;;;;;;;5.78;4.25;;;;;;;15.57;52.76;95523.19;5115539;28;20508;-65
2023/10/02 03:43:48;;;;;;;7.32;4.18;;;;;;;15.54;52.54;95528.69;5115321;28;20180;-65
2023/10/02 03:46:22;;;;;;;5.45;4.70;;;;;;;15.53;52.77;95521.53;5115550;28;20184;-65
2023/10/02 03:48:58;;;;;;;6.95;4.72;;;;;;;15.50;52.62;95513.94;5098246;28;20195;-65
2023/10/02 03:51:40;;;;;;;5.45;4.95;;;;;;;15.48;52.59;95525.47;5097504;28;20203;-64
2023/10/02 03:56:57;;;;;;;6.07;4.50;;;;;;;15.46;52.19;95527.00;5095678;28;20433;-65
2023/10/02 03:59:31;;;;;;;7.32;4.50;;;;;;;15.43;51.92;95528.53;5097482;28;20234;-64
2023/10/02 04:02:24;;;;;;;5.97;4.32;;;;;;;15.38;52.40;95535.22;5097918;28;20195;-64
2023/10/02 04:04:51;;;;;;;5.65;4.30;;;;;;;15.37;52.13;95538.38;5115159;28;20615;-64
2023/10/02 04:07:24;;;;;;;5.60;3.70;;;;;;;15.34;52.13;95536.34;5115425;28;20188;-64
2023/10/02 04:09:55;;;;;;;5.35;3.95;;;;;;;15.34;52.06;95545.47;5098515;28;20191;-64
2023/10/02 04:12:24;;;;;;;5.15;4.15;;;;;;;15.36;52.09;95539.56;5098029;28;20207;-64
2023/10/02 04:14:54;;;;;;;5.75;3.90;;;;;;;15.38;51.71;95548.31;5097676;28;20188;-64
2023/10/02 04:17:21;;;;;;;6.47;4.78;;;;;;;15.36;51.76;95548.69;5097528;28;20211;-64
2023/10/02 04:19:51;;;;;;;6.32;4.10;;;;;;;15.38;51.92;95548.31;5097931;28;20196;-64
2023/10/02 04:22:22;;;;;;;4.82;4.30;;;;;;;15.39;51.64;95544.34;5115522;28;20556;-64
2023/10/02 04:24:54;;;;;;;5.20;4.25;;;;;;;15.40;51.24;95555.13;5115264;28;20172;-64
2023/10/02 04:27:28;;;;;;;4.63;3.97;;;;;;;15.38;51.29;95554.69;5098106;28;20223;-64
2023/10/02 04:32:59;;;;;;;5.28;4.07;;;;;;;15.36;51.76;95556.25;5097653;28;20202;-64
2023/10/02 04:38:14;;;;;;;4.63;3.72;;;;;;;15.36;51.11;95573.72;5116439;28;20231;-64
2023/10/02 04:40:52;;;;;;;5.18;4.25;;;;;;;15.33;51.34;95570.88;5101505;28;20192;-64
2023/10/02 04:43:27;;;;;;;5.13;3.95;;;;;;;15.34;51.34;95578.84;5100928;28;20196;-63
2023/10/02 04:46:01;;;;;;;5.75;3.97;;;;;;;15.33;51.19;95580.00;5101612;28;20206;-63
2023/10/02 04:48:38;;;;;;;5.78;4.15;;;;;;;15.32;51.51;95583.16;5101019;28;20230;-63
2023/10/02 04:51:09;;;;;;;5.93;4.15;;;;;;;15.31;51.39;95581.56;5118164;28;20606;-63
2023/10/02 04:53:39;;;;;;;5.32;3.95;;;;;;;15.32;51.03;95581.19;5100730;28;20216;-63
2023/10/02 04:56:21;;;;;;;6.88;3.42;;;;;;;15.29;50.81;95587.50;5118424;28;20184;-63
2023/10/02 04:58:51;;;;;;;6.63;3.83;;;;;;;15.29;51.12;95589.47;5096220;28;20231;-63
2023/10/02 05:01:34;;;;;;;5.97;3.72;;;;;;;15.28;50.94;95585.06;5097773;28;20199;-63
2023/10/02 05:04:03;;;;;;;3.90;3.22;;;;;;;15.29;50.87;95583.91;5097747;28;20204;-64
2023/10/02 05:06:55;;;;;;;5.53;3.90;;;;;;;15.31;51.01;95587.09;5097694;28;20199;-64
2023/10/02 05:09:25;;;;;;;5.70;3.83;;;;;;;15.31;50.97;95587.09;5080035;28;20602;-64
2023/10/02 05:12:04;;;;;;;5.15;3.72;;;;;;;15.30;51.02;95591.06;5097522;28;20247;-64
2023/10/02 05:14:47;;;;;;;5.05;3.97;;;;;;;15.30;50.51;95582.72;5079849;28;20600;-64
2023/10/02 05:17:41;;;;;;;5.45;3.40;;;;;;;15.31;50.35;95581.56;5080577;28;20208;-64
2023/10/02 05:20:15;;;;;;;4.68;3.65;;;;;;;15.28;50.58;95591.41;5097891;28;20612;-64
2023/10/02 05:22:45;;;;;;;4.90;3.80;;;;;;;15.27;50.63;95591.81;5063829;28;20188;-64
2023/10/02 05:25:18;;;;;;;5.60;4.30;;;;;;;15.29;50.10;95595.03;5079344;28;20207;-64
2023/10/02 05:27:47;;;;;;;3.90;3.42;;;;;;;15.30;50.33;95596.63;5079731;28;20185;-64
2023/10/02 05:30:18;;;;;;;4.95;3.97;;;;;;;15.32;50.36;95599.81;5079629;28;20232;-64
2023/10/02 05:32:51;;;;;;;6.07;3.58;;;;;;;15.34;50.38;95603.84;5079550;28;20208;-64
2023/10/02 05:35:23;;;;;;;7.13;3.92;;;;;;;15.32;50.36;95597.88;5079574;28;20184;-64
2023/10/02 05:37:54;;;;;;;5.80;4.10;;;;;;;15.36;50.41;95603.50;5097078;28;20283;-64
2023/10/02 05:45:53;;;;;;;4.70;3.67;;;;;;;15.37;50.55;95605.09;5075308;28;20598;-64
2023/10/02 05:48:37;;;;;;;5.85;3.97;;;;;;;15.38;50.44;95606.69;5078295;28;20192;-64
2023/10/02 05:51:09;;;;;;;3.75;3.35;;;;;;;15.38;50.45;95603.91;5096594;28;20646;-63
2023/10/02 05:53:37;;;;;;;5.15;3.50;;;;;;;15.36;50.14;95615.41;5097513;28;20188;-63
2023/10/02 05:56:05;;;;;;;5.78;4.45;;;;;;;15.37;50.21;95607.88;5096591;28;20180;-63
2023/10/02 05:58:36;;;;;;;5.05;3.72;;;;;;;15.39;50.79;95616.63;5094987;28;20525;-63
2023/10/02 06:01:18;;;;;;;6.00;3.85;;;;;;;15.40;50.83;95610.72;5100099;28;20249;-63
2023/10/02 06:04:05;;;;;;;6.55;4.13;;;;;;;15.44;50.40;95609.97;5099121;28;20199;-63
2023/10/02 06:06:40;;;;;;;5.00;3.55;;;;;;;15.44;50.90;95612.75;5116963;28;20191;-63
2023/10/02 06:09:16;;;;;;;5.25;3.70;;;;;;;15.42;50.19;95618.66;5099726;28;20221;-63
2023/10/02 06:12:05;;;;;;;5.28;3.70;;;;;;;15.43;51.04;95619.47;5098738;28;20599;-64
2023/10/02 06:14:38;;;;;;;7.22;4.25;;;;;;;15.44;50.50;95615.53;5116110;28;20214;-64
2023/10/02 06:17:11;;;;;;;10.20;5.15;;;;;;;15.46;50.43;95621.50;5099250;28;20295;-64
2023/10/02 06:19:48;;;;;;;6.80;4.50;;;;;;;15.45;49.92;95623.50;5116809;28;20194;-64
2023/10/02 06:22:18;;;;;;;6.45;4.25;;;;;;;15.47;49.81;95615.59;5098861;28;20195;-64
2023/10/02 06:24:48;;;;;;;7.57;5.45;;;;;;;15.48;50.06;95627.50;5116520;28;20214;-64
2023/10/02 06:27:22;;;;;;;7.75;5.07;;;;;;;15.50;50.06;95625.16;5098803;28;20192;-64
2023/10/02 06:29:52;;;;;;;8.13;4.80;;;;;;;15.55;50.14;95635.97;5098767;28;20256;-64
2023/10/02 06:32:22;;;;;;;6.75;3.80;;;;;;;15.53;49.59;95641.88;5099257;28;20219;-64
2023/10/02 06:34:57;;;;;;;7.47;4.45;;;;;;;15.54;49.85;95637.94;5098882;28;20231;-64
2023/10/02 06:37:33;;;;;;;9.35;4.72;;;;;;;15.54;49.54;95642.69;5098488;28;20215;-64
2023/10/02 06:40:04;;;;;;;6.97;4.20;;;;;;;15.53;49.61;95652.22;5098352;28;20286;-64
2023/10/02 06:42:34;;;;;;;4.90;3.78;;;;;;;15.52;49.61;95645.06;5098783;28;20245;-64
2023/10/02 06:45:02;;;;;;;5.50;4.00;;;;;;;15.54;49.69;95654.63;5116091;28;20187;-64
2023/10/02 06:47:31;;;;;;;6.97;3.97;;;;;;;15.54;49.74;95651.03;5098453;28;20206;-64
2023/10/02 06:50:27;;;;;;;4.45;3.60;;;;;;;15.55;50.09;95652.66;5098489;28;20191;-64
2023/10/02 06:52:57;;;;;;;5.22;3.05;;;;;;;15.57;49.87;95653.88;5098641;28;20279;-64
2023/10/02 06:55:29;;;;;;;3.95;3.30;;;;;;;15.58;50.40;95651.91;5098970;28;20196;-64
2023/10/02 06:57:57;;;;;;;3.85;3.40;;;;;;;15.59;49.73;95651.53;5098161;28;20235;-63
2023/10/02 07:00:36;;;;;;;3.67;3.20;;;;;;;15.64;50.09;95661.53;5098450;28;20290;-64
2023/10/02 07:03:06;;;;;;;4.03;3.58;;;;;;;15.70;50.38;95654.53;5078250;28;20575;-64
2023/10/02 07:05:42;;;;;;;4.68;3.83;;;;;;;15.81;50.50;95665.81;5095492;28;20203;-64
2023/10/02 07:08:22;;;;;;;7.28;3.80;;;;;;;15.90;49.93;95655.22;5095773;28;20540;-64
2023/10/02 07:10:52;;;;;;;4.80;3.67;;;;;;;16.01;49.79;95652.63;5078516;28;20192;-64
2023/10/02 07:13:23;;;;;;;5.93;3.88;;;;;;;16.05;49.70;95659.88;5095786;28;20195;-63
2023/10/02 07:15:55;;;;;;;4.57;3.60;;;;;;;16.10;49.52;95662.31;5077783;28;20208;-63
2023/10/02 07:18:37;;;;;;;5.43;3.60;;;;;;;16.15;49.84;95666.75;5095689;28;20211;-63
2023/10/02 07:21:08;;;;;;;5.78;3.72;;;;;;;16.18;49.61;95660.44;5078096;28;20225;-63
2023/10/02 07:23:37;;;;;;;5.07;3.30;;;;;;;16.21;49.57;95661.69;5077484;28;20200;-63
2023/10/02 07:26:04;;;;;;;5.75;4.18;;;;;;;16.29;50.01;95661.41;5077787;28;20214;-63
2023/10/02 07:28:49;;;;;;;6.75;4.00;;;;;;;16.41;49.97;95659.56;5078111;28;20289;-63
2023/10/02 07:31:18;;;;;;;4.35;3.42;;;;;;;16.51;49.40;95653.34;5095352;28;20199;-63
2023/10/02 07:33:48;;;;;;;5.00;3.70;;;;;;;16.60;49.81;95654.69;5077053;28;20212;-64
2023/10/02 07:36:16;;;;;;;6.20;4.10;;;;;;;16.67;48.97;95655.97;5095239;28;20202;-63
2023/10/02 07:38:47;;;;;;;4.85;3.90;;;;;;;16.72;49.11;95647.28;5077968;28;20208;-63
2023/10/02 07:41:23;;;;;;;5.72;3.97;;;;;;;16.83;49.39;95659.38;5095139;28;20220;-64
2023/10/02 07:43:53;;;;;;;5.18;3.50;;;;;;;16.95;48.88;95652.75;5077186;28;20203;-64
2023/10/02 07:46:24;;;;;;;4.95;3.72;;;;;;;17.05;48.28;95657.66;5077408;28;20196;-63
2023/10/02 07:48:57;;;;;;;6.25;3.78;;;;;;;17.16;48.65;95655.78;5095084;28;20603;-63
2023/10/02 07:51:36;;;;;;;4.97;3.58;;;;;;;17.24;47.85;95649.09;5095078;28;20181;-63
2023/10/02 07:54:07;;;;;;;8.75;4.07;;;;;;;17.32;47.75;95663.94;5077065;28;20231;-63
2023/10/02 07:56:35;;;;;;;5.63;4.30;;;;;;;17.36;47.25;95653.63;5095108;28;20180;-63
2023/10/02 07:59:07;;;;;;;5.93;3.90;;;;;;;17.42;47.56;95660.44;5084105;28;20235;-63
2023/10/02 08:01:34;;;;;;;6.10;4.25;;;;;;;17.53;47.23;95660.53;5097893;28;20203;-63
2023/10/02 08:04:04;;;;;;;5.55;3.78;;;;;;;17.60;46.82;95649.47;5115093;28;20626;-63
2023/10/02 08:06:37;;;;;;;5.68;4.30;;;;;;;17.70;46.85;95664.69;5097774;28;20293;-63
2023/10/02 08:11:56;;;;;;;4.32;3.67;;;;;;;17.83;46.13;95652.09;5117056;28;20261;-64
2023/10/02 08:14:42;;;;;;;6.40;3.88;;;;;;;17.92;46.44;95654.56;5118867;28;20488;-64
2023/10/02 08:17:22;;;;;;;7.75;4.80;;;;;;;18.04;46.14;95662.63;5101951;28;20188;-64
2023/10/02 08:19:56;;;;;;;7.80;4.55;;;;;;;18.14;45.82;95650.72;5101724;28;20292;-64
2023/10/02 08:22:35;;;;;;;7.05;4.57;;;;;;;18.26;46.10;95647.66;5118668;28;20643;-64
2023/10/02 08:25:13;;;;;;;6.72;4.90;;;;;;;18.37;45.56;95646.88;5102851;28;20192;-64
2023/10/02 08:27:40;;;;;;;6.05;4.35;;;;;;;18.51;45.25;95644.97;5118341;28;20207;-64
2023/10/02 08:30:19;;;;;;;5.75;4.05;;;;;;;18.61;44.97;95654.63;5118789;28;20286;-64
2023/10/02 08:32:52;;;;;;;8.77;5.43;;;;;;;18.72;45.17;95652.72;5101449;28;20287;-64
2023/10/02 08:35:21;;;;;;;8.80;4.85;;;;;;;18.82;44.68;95650.38;5118856;28;20188;-64
2023/10/02 08:37:55;;;;;;;8.43;4.38;;;;;;;18.91;44.12;95657.19;5100744;28;20253;-64
2023/10/02 08:40:24;;;;;;;6.60;3.85;;;;;;;18.91;43.38;95657.19;5118307;28;20216;-64
2023/10/02 08:42:56;;;;;;;6.13;4.00;;;;;;;18.96;43.84;95656.03;5100875;28;20272;-64
2023/10/02 08:45:25;;;;;;;6.10;4.82;;;;;;;19.09;43.78;95645.28;5118857;28;20203;-64
2023/10/02 08:47:52;;;;;;;6.80;4.53;;;;;;;19.18;43.90;95654.91;5100806;28;20306;-63
2023/10/02 08:50:20;;;;;;;5.90;4.20;;;;;;;19.26;42.78;95644.53;5100445;28;20268;-63
2023/10/02 08:52:52;;;;;;;6.35;4.75;;;;;;;19.29;42.40;95645.75;5101336;28;20195;-63
2023/10/02 08:55:36;;;;;;;7.38;4.47;;;;;;;19.37;43.29;95650.16;5100594;28;20220;-63
2023/10/02 08:58:15;;;;;;;5.28;4.60;;;;;;;19.42;42.76;95646.97;5118652;28;20218;-63
2023/10/02 09:01:17;;;;;;;6.38;4.20;;;;;;;19.45;42.41;95644.19;5118687;28;20280;-64
2023/10/02 09:04:21;;;;;;;6.40;4.30;;;;;;;19.58;42.94;95641.03;5100856;28;20206;-64
2023/10/02 09:06:44;;;;;;;5.32;4.45;;;;;;;19.67;42.55;95631.06;5099696;28;20199;-64
2023/10/02 09:09:22;;;;;;;7.45;4.10;;;;;;;19.78;42.07;95642.25;5101349;28;20288;-64
2023/10/02 09:11:53;;;;;;;7.35;4.05;;;;;;;19.81;41.64;95638.66;5100865;28;20616;-64
2023/10/02 09:14:22;;;;;;;6.85;4.53;;;;;;;19.86;41.21;95635.47;5118061;28;20184;-64
2023/10/02 09:17:12;;;;;;;5.60;3.88;;;;;;;19.91;41.66;95635.06;5101034;28;20184;-64
2023/10/02 09:19:41;;;;;;;5.15;3.92;;;;;;;20.02;40.68;95631.47;5100131;28;20212;-64
2023/10/02 09:22:16;;;;;;;6.78;4.07;;;;;;;20.02;40.24;95628.69;5100115;28;20225;-64
2023/10/02 09:24:55;;;;;;;4.78;4.07;;;;;;;20.13;40.47;95630.25;5099916;28;20256;-64
2023/10/02 09:27:30;;;;;;;7.13;4.13;;;;;;;20.28;40.49;95635.84;5100375;28;20282;-64
2023/10/02 09:32:51;;;;;;;6.65;4.13;;;;;;;20.58;39.25;95622.19;5099337;28;20211;-64
2023/10/02 09:35:29;;;;;;;5.25;4.43;;;;;;;20.69;38.84;95624.97;5099494;28;20231;-64
2023/10/02 09:38:02;;;;;;;5.50;4.10;;;;;;;20.78;38.06;95624.56;5099903;28;20206;-64
2023/10/02 09:40:53;;;;;;;6.57;3.80;;;;;;;20.75;37.43;95628.97;5099451;28;20279;-64
2023/10/02 09:43:27;;;;;;;5.72;3.67;;;;;;;20.78;36.47;95628.16;5100403;28;20291;-64
2023/10/02 09:45:58;;;;;;;5.53;3.90;;;;;;;20.74;36.64;95623.78;5099382;28;20222;-64
2023/10/02 09:52:09;;;;;;;4.88;4.20;;;;;;;20.93;37.00;95623.28;5093906;28;20317;-64
2023/10/02 09:55:03;;;;;;;5.82;3.78;;;;;;;21.05;36.84;95624.84;5100205;28;20179;-64
2023/10/02 09:57:38;;;;;;;4.55;3.72;;;;;;;21.04;35.53;95617.63;5099779;28;20290;-64
2023/10/02 10:00:34;;;;;;;8.85;4.88;;;;;;;21.13;36.40;95624.41;5116752;28;20613;-64
2023/10/02 10:03:32;;;;;;;6.13;4.60;;;;;;;21.29;35.15;95611.91;5098848;28;20250;-64
2023/10/02 10:06:19;;;;;;;5.90;4.13;;;;;;;21.38;35.15;95612.25;5116938;28;20180;-64
2023/10/02 10:09:50;;;;;;;5.35;4.40;;;;;;;21.50;34.49;95613.81;5099101;28;20290;-64
2023/10/02 10:12:21;;;;;;;7.00;4.18;;;;;;;21.55;34.39;95619.78;5116994;28;20210;-64
2023/10/02 10:14:54;;;;;;;6.47;4.05;;;;;;;21.65;34.80;95615.31;5099331;28;20219;-64
2023/10/02 10:17:58;;;;;;;7.47;4.22;;;;;;;21.68;34.31;95624.91;5116516;28;20194;-64
2023/10/02 10:20:27;;;;;;;6.40;4.20;;;;;;;21.69;34.65;95609.69;5099098;28;20214;-64
2023/10/02 10:22:56;;;;;;;5.90;4.28;;;;;;;21.72;33.91;95601.22;5098851;28;20200;-65
2023/10/02 10:25:41;;;;;;;6.63;4.40;;;;;;;21.77;33.82;95594.38;5116272;28;20288;-64
2023/10/02 10:28:14;;;;;;;5.95;4.43;;;;;;;21.86;34.59;95595.50;5099291;28;20529;-64
2023/10/02 10:30:44;;;;;;;6.38;4.20;;;;;;;21.94;33.35;95590.63;5098870;28;20207;-64
2023/10/02 10:33:45;;;;;;;5.13;4.60;;;;;;;21.97;33.75;95586.16;5098679;28;20287;-64
2023/10/02 10:36:48;;;;;;;6.70;4.70;;;;;;;22.00;33.18;95577.72;5116356;28;20183;-64
2023/10/02 10:39:52;;;;;;;6.03;4.00;;;;;;;21.98;33.85;95573.75;5099380;28;20222;-64
2023/10/02 10:42:23;;;;;;;5.72;4.55;;;;;;;21.99;33.60;95566.91;5116309;28;20628;-64
2023/10/02 10:44:55;;;;;;;8.35;4.32;;;;;;;;;;5116163;28;20611;-64
2023/10/02 10:47:38;;;;;;;6.75;4.53;;;;;;;22.11;33.70;95564.38;5099002;28;20202;-64
2023/10/02 10:50:29;;;;;;;5.65;4.43;;;;;;;22.15;34.08;95569.19;5116040;28;20191;-64
2023/10/02 10:55:47;;;;;;;6.13;4.03;;;;;;;22.21;33.93;95565.50;5097931;28;20195;-64
2023/10/02 10:58:15;;;;;;;6.47;4.22;;;;;;;22.26;34.57;95558.63;5098502;28;20288;-64
2023/10/02 11:00:49;;;;;;;5.50;4.72;;;;;;;22.20;33.28;95549.88;5114608;28;20630;-64
2023/10/02 11:03:19;;;;;;;5.68;4.50;;;;;;;22.18;34.43;95559.91;5098317;28;20203;-65
2023/10/02 11:05:49;;;;;;;5.53;4.40;;;;;;;22.22;34.94;95546.63;5098130;28;20189;-64
2023/10/02 11:08:28;;;;;;;6.57;3.95;;;;;;;22.31;33.85;95546.94;5116026;28;20180;-64
2023/10/02 11:11:11;;;;;;;5.70;4.47;;;;;;;22.31;34.64;95550.56;5098605;28;20195;-64
2023/10/02 11:13:59;;;;;;;5.45;4.20;;;;;;;22.58;34.61;95545.03;5097899;28;20611;-65
2023/10/02 11:16:31;;;;;;;5.00;4.38;;;;;;;22.74;33.88;95544.44;5098041;28;20196;-65
2023/10/02 11:19:21;;;;;;;8.00;4.80;;;;;;;22.73;33.58;95553.28;5115516;28;20279;-64
2023/10/02 11:22:16;;;;;;;6.53;4.22;;;;;;;22.65;34.09;95532.91;5098556;28;20183;-64
2023/10/02 11:24:49;;;;;;;5.10;4.55;;;;;;;22.52;34.11;95534.69;5115535;28;20214;-64
2023/10/02 11:27:18;;;;;;;5.85;4.50;;;;;;;22.47;34.10;95533.09;5115797;28;20190;-64
2023/10/02 11:30:00;;;;;;;5.63;4.25;;;;;;;22.36;34.42;95532.44;5098031;28;20226;-65
2023/10/02 11:32:47;;;;;;;5.00;4.05;;;;;;;22.38;35.01;95529.22;5115832;28;20262;-64
2023/10/02 11:35:15;;;;;;;5.25;3.97;;;;;;;22.43;35.06;95535.16;5098163;28;20513;-64
2023/10/02 11:37:49;;;;;;;5.88;4.40;;;;;;;22.42;35.21;95525.16;5097900;28;20191;-64
2023/10/02 11:40:21;;;;;;;6.22;4.18;;;;;;;22.34;35.15;95527.25;5097321;28;20215;-64
2023/10/02 11:42:49;;;;;;;6.22;4.30;;;;;;;22.29;35.08;95519.25;5097916;28;20207;-64
2023/10/02 11:45:17;;;;;;;4.90;4.40;;;;;;;22.29;35.55;95527.69;5098083;28;20231;-64
2023/10/02 11:47:45;;;;;;;5.13;4.30;;;;;;;22.29;35.11;95515.66;5118864;28;20176;-64
2023/10/02 11:50:12;;;;;;;5.57;4.50;;;;;;;22.28;35.25;95523.28;5084974;28;20290;-64
2023/10/02 11:52:41;;;;;;;7.00;4.57;;;;;;;22.32;35.52;95523.25;5102666;28;20207;-64
2023/10/02 11:55:12;;;;;;;6.40;4.45;;;;;;;22.20;35.73;95530.22;5102312;28;20274;-64
2023/10/02 11:57:40;;;;;;;4.75;4.25;;;;;;;22.15;35.84;95522.25;5102274;28;20187;-64
2023/10/02 12:00:12;;;;;;;5.88;4.72;;;;;;;22.17;35.94;95531.03;5101370;28;20231;-65
2023/10/02 12:02:40;;;;;;;5.65;4.82;;;;;;;22.19;35.95;95525.03;5101926;28;20206;-64
2023/10/02 12:05:09;;;;;;;5.35;4.85;;;;;;;22.07;35.72;95529.88;5101488;28;20199;-64
2023/10/02 12:07:38;;;;;;;6.50;4.60;;;;;;;22.01;36.27;95520.34;5119053;28;20543;-64
2023/10/02 12:10:06;;;;;;;7.47;4.90;;;;;;;21.98;35.92;95521.16;5101403;28;20198;-64
2023/10/02 12:12:36;;;;;;;7.90;5.20;;;;;;;22.00;35.91;95518.72;5101745;28;20207;-64
2023/10/02 12:15:04;;;;;;;7.55;5.30;;;;;;;22.04;36.35;95511.09;5118933;28;20180;-64
2023/10/02 12:17:31;;;;;;;7.13;4.60;;;;;;;22.11;36.07;95505.41;5119228;28;20180;-64
2023/10/02 12:19:58;;;;;;;6.65;4.65;;;;;;;22.17;35.57;95505.75;5119509;28;20204;-64
2023/10/02 12:22:27;;;;;;;8.40;4.93;;;;;;;22.25;36.15;95507.25;5101642;28;20203;-64
2023/10/02 12:24:54;;;;;;;8.85;4.72;;;;;;;22.36;35.67;95509.94;5119114;28;20188;-64
2023/10/02 12:27:21;;;;;;;5.65;3.90;;;;;;;22.34;35.38;95501.16;5119628;28;20195;-64
2023/10/02 12:29:50;;;;;;;5.55;4.32;;;;;;;22.35;35.73;95500.72;5119025;28;20191;-64
2023/10/02 12:32:21;;;;;;;6.32;4.30;;;;;;;22.43;36.71;95495.81;5101383;28;20200;-65
2023/10/02 12:34:48;;;;;;;6.22;4.30;;;;;;;22.37;35.91;95502.31;5119197;28;20199;-64
2023/10/02 12:37:18;;;;;;;6.82;4.38;;;;;;;22.27;35.99;95501.25;5118854;28;20192;-65